sensor_id;sensor_type;location;lat;lon;timestamp;P1;durP1;ratioP1;P2;durP2;ratioP2
62796;SDS011;48839;48.546;-4.178;2022-11-15T00:00:43;1.27;;;0.80;;
62796;SDS011;48839;48.546;-4.178;2022-11-15T00:03:09;2.20;;;0.80;;
62796;SDS011;48839;48.546;-4.178;2022-11-15T00:05:35;2.55;;;0.80;;
62796;SDS011;48839;48.546;-4.178;2022-11-15T00:08:01;2.58;;;0.80;;
62796;SDS011;48839;48.546;-4.178;2022-11-15T00:10:27;2.75;;;1.23;;
62796;SDS011;48839;48.546;-4.178;2022-11-15T00:12:53;1.15;;;0.80;;
62796;SDS011;48839;48.546;-4.178;2022-11-15T00:15:19;3.08;;;0.90;;
62796;SDS011;48839;48.546;-4.178;2022-11-15T00:17:48;2.22;;;0.60;;
62796;SDS011;48839;48.546;-4.178;2022-11-15T00:20:16;2.03;;;1.10;;
62796;SDS011;48839;48.546;-4.178;2022-11-15T00:22:42;1.33;;;0.70;;
62796;SDS011;48839;48.546;-4.178;2022-11-15T00:25:08;1.13;;;0.70;;
62796;SDS011;48839;48.546;-4.178;2022-11-15T00:27:34;3.92;;;0.73;;
62796;SDS011;48839;48.546;-4.178;2022-11-15T00:30:00;4.90;;;1.00;;
62796;SDS011;48839;48.546;-4.178;2022-11-15T00:32:26;0.98;;;0.80;;
62796;SDS011;48839;48.546;-4.178;2022-11-15T00:34:56;0.68;;;0.50;;
62796;SDS011;48839;48.546;-4.178;2022-11-15T00:37:22;1.85;;;0.55;;
62796;SDS011;48839;48.546;-4.178;2022-11-15T00:39:48;1.15;;;0.50;;
62796;SDS011;48839;48.546;-4.178;2022-11-15T00:42:14;2.72;;;0.50;;
62796;SDS011;48839;48.546;-4.178;2022-11-15T00:44:40;0.50;;;0.50;;
62796;SDS011;48839;48.546;-4.178;2022-11-15T00:47:06;0.60;;;0.60;;
62796;SDS011;48839;48.546;-4.178;2022-11-15T00:49:32;4.15;;;0.70;;
62796;SDS011;48839;48.546;-4.178;2022-11-15T00:51:58;1.35;;;0.55;;
62796;SDS011;48839;48.546;-4.178;2022-11-15T00:54:24;1.30;;;0.60;;
62796;SDS011;48839;48.546;-4.178;2022-11-15T00:56:50;1.08;;;0.40;;
62796;SDS011;48839;48.546;-4.178;2022-11-15T00:59:16;1.05;;;0.50;;
62796;SDS011;48839;48.546;-4.178;2022-11-15T01:01:42;2.80;;;0.63;;
62796;SDS011;48839;48.546;-4.178;2022-11-15T01:04:08;2.15;;;0.47;;
62796;SDS011;48839;48.546;-4.178;2022-11-15T01:06:34;0.45;;;0.40;;
62796;SDS011;48839;48.546;-4.178;2022-11-15T01:09:00;2.92;;;0.40;;
62796;SDS011;48839;48.546;-4.178;2022-11-15T01:11:26;0.40;;;0.35;;
62796;SDS011;48839;48.546;-4.178;2022-11-15T01:13:52;0.55;;;0.30;;
62796;SDS011;48839;48.546;-4.178;2022-11-15T01:16:18;0.38;;;0.38;;
62796;SDS011;48839;48.546;-4.178;2022-11-15T01:18:44;2.05;;;0.30;;
62796;SDS011;48839;48.546;-4.178;2022-11-15T01:21:12;1.00;;;0.30;;
62796;SDS011;48839;48.546;-4.178;2022-11-15T01:23:38;2.38;;;0.40;;
62796;SDS011;48839;48.546;-4.178;2022-11-15T01:26:06;0.50;;;0.40;;
62796;SDS011;48839;48.546;-4.178;2022-11-15T01:28:33;0.30;;;0.30;;
62796;SDS011;48839;48.546;-4.178;2022-11-15T01:31:00;0.75;;;0.30;;
62796;SDS011;48839;48.546;-4.178;2022-11-15T01:33:27;0.20;;;0.20;;
62796;SDS011;48839;48.546;-4.178;2022-11-15T01:35:53;0.28;;;0.28;;
62796;SDS011;48839;48.546;-4.178;2022-11-15T01:38:19;0.77;;;0.40;;
62796;SDS011;48839;48.546;-4.178;2022-11-15T01:40:45;2.20;;;0.47;;
62796;SDS011;48839;48.546;-4.178;2022-11-15T01:45:49;0.22;;;0.20;;
62796;SDS011;48839;48.546;-4.178;2022-11-15T01:48:15;0.30;;;0.30;;
62796;SDS011;48839;48.546;-4.178;2022-11-15T01:50:41;0.73;;;0.40;;
62796;SDS011;48839;48.546;-4.178;2022-11-15T01:53:07;0.65;;;0.45;;
62796;SDS011;48839;48.546;-4.178;2022-11-15T01:55:35;0.85;;;0.40;;
62796;SDS011;48839;48.546;-4.178;2022-11-15T01:58:02;1.80;;;0.40;;
62796;SDS011;48839;48.546;-4.178;2022-11-15T02:00:29;1.20;;;0.30;;
62796;SDS011;48839;48.546;-4.178;2022-11-15T02:02:55;2.65;;;0.40;;
62796;SDS011;48839;48.546;-4.178;2022-11-15T02:05:21;0.65;;;0.45;;
62796;SDS011;48839;48.546;-4.178;2022-11-15T02:07:48;0.63;;;0.38;;
62796;SDS011;48839;48.546;-4.178;2022-11-15T02:10:17;1.58;;;0.40;;
62796;SDS011;48839;48.546;-4.178;2022-11-15T02:12:44;0.88;;;0.45;;
62796;SDS011;48839;48.546;-4.178;2022-11-15T02:15:11;0.30;;;0.30;;
62796;SDS011;48839;48.546;-4.178;2022-11-15T02:22:35;1.38;;;0.38;;
62796;SDS011;48839;48.546;-4.178;2022-11-15T02:30:38;0.95;;;0.40;;
62796;SDS011;48839;48.546;-4.178;2022-11-15T02:36:01;0.30;;;0.30;;
62796;SDS011;48839;48.546;-4.178;2022-11-15T02:41:04;0.68;;;0.32;;
62796;SDS011;48839;48.546;-4.178;2022-11-15T02:43:33;0.57;;;0.50;;
62796;SDS011;48839;48.546;-4.178;2022-11-15T02:46:31;0.47;;;0.30;;
62796;SDS011;48839;48.546;-4.178;2022-11-15T02:49:17;0.28;;;0.28;;
62796;SDS011;48839;48.546;-4.178;2022-11-15T02:51:44;0.52;;;0.30;;
62796;SDS011;48839;48.546;-4.178;2022-11-15T02:54:14;1.98;;;0.40;;
62796;SDS011;48839;48.546;-4.178;2022-11-15T02:56:42;0.30;;;0.30;;
62796;SDS011;48839;48.546;-4.178;2022-11-15T02:59:13;0.20;;;0.20;;
62796;SDS011;48839;48.546;-4.178;2022-11-15T03:04:46;0.52;;;0.52;;
62796;SDS011;48839;48.546;-4.178;2022-11-15T03:07:23;0.80;;;0.35;;
62796;SDS011;48839;48.546;-4.178;2022-11-15T03:14:54;1.50;;;0.50;;
62796;SDS011;48839;48.546;-4.178;2022-11-15T03:17:29;0.30;;;0.30;;
62796;SDS011;48839;48.546;-4.178;2022-11-15T03:19:57;0.30;;;0.30;;
62796;SDS011;48839;48.546;-4.178;2022-11-15T03:22:24;0.90;;;0.30;;
62796;SDS011;48839;48.546;-4.178;2022-11-15T03:24:52;9.10;;;0.60;;
62796;SDS011;48839;48.546;-4.178;2022-11-15T03:27:20;0.93;;;0.40;;
62796;SDS011;48839;48.546;-4.178;2022-11-15T03:29:48;0.20;;;0.20;;
62796;SDS011;48839;48.546;-4.178;2022-11-15T03:32:17;2.08;;;0.30;;
62796;SDS011;48839;48.546;-4.178;2022-11-15T03:34:46;2.60;;;0.50;;
62796;SDS011;48839;48.546;-4.178;2022-11-15T03:37:14;1.48;;;0.40;;
62796;SDS011;48839;48.546;-4.178;2022-11-15T03:39:41;1.10;;;0.40;;
62796;SDS011;48839;48.546;-4.178;2022-11-15T03:42:14;2.38;;;0.40;;
62796;SDS011;48839;48.546;-4.178;2022-11-15T03:44:53;0.20;;;0.20;;
62796;SDS011;48839;48.546;-4.178;2022-11-15T03:47:27;1.23;;;0.40;;
62796;SDS011;48839;48.546;-4.178;2022-11-15T03:50:03;0.30;;;0.30;;
62796;SDS011;48839;48.546;-4.178;2022-11-15T03:52:31;0.35;;;0.35;;
62796;SDS011;48839;48.546;-4.178;2022-11-15T03:54:58;0.32;;;0.32;;
62796;SDS011;48839;48.546;-4.178;2022-11-15T03:57:25;0.45;;;0.30;;
62796;SDS011;48839;48.546;-4.178;2022-11-15T03:59:51;1.02;;;0.55;;
62796;SDS011;48839;48.546;-4.178;2022-11-15T04:02:18;0.95;;;0.40;;
62796;SDS011;48839;48.546;-4.178;2022-11-15T04:04:44;5.68;;;0.40;;
62796;SDS011;48839;48.546;-4.178;2022-11-15T04:07:10;1.27;;;0.30;;
62796;SDS011;48839;48.546;-4.178;2022-11-15T04:09:36;0.93;;;0.30;;
62796;SDS011;48839;48.546;-4.178;2022-11-15T04:12:22;1.55;;;0.40;;
62796;SDS011;48839;48.546;-4.178;2022-11-15T04:15:01;0.38;;;0.38;;
62796;SDS011;48839;48.546;-4.178;2022-11-15T04:17:43;0.30;;;0.30;;
62796;SDS011;48839;48.546;-4.178;2022-11-15T04:23:00;0.85;;;0.60;;
62796;SDS011;48839;48.546;-4.178;2022-11-15T04:25:45;0.93;;;0.40;;
62796;SDS011;48839;48.546;-4.178;2022-11-15T04:28:13;0.20;;;0.20;;
62796;SDS011;48839;48.546;-4.178;2022-11-15T04:30:39;0.25;;;0.25;;
62796;SDS011;48839;48.546;-4.178;2022-11-15T04:33:05;0.38;;;0.30;;
62796;SDS011;48839;48.546;-4.178;2022-11-15T04:35:31;0.20;;;0.20;;
62796;SDS011;48839;48.546;-4.178;2022-11-15T04:37:57;0.28;;;0.28;;
62796;SDS011;48839;48.546;-4.178;2022-11-15T04:40:23;0.10;;;0.10;;
62796;SDS011;48839;48.546;-4.178;2022-11-15T04:42:49;0.20;;;0.20;;
62796;SDS011;48839;48.546;-4.178;2022-11-15T04:45:15;0.40;;;0.40;;
62796;SDS011;48839;48.546;-4.178;2022-11-15T04:47:45;0.20;;;0.20;;
62796;SDS011;48839;48.546;-4.178;2022-11-15T04:50:11;0.20;;;0.20;;
62796;SDS011;48839;48.546;-4.178;2022-11-15T04:52:41;0.60;;;0.28;;
62796;SDS011;48839;48.546;-4.178;2022-11-15T04:55:07;0.82;;;0.20;;
62796;SDS011;48839;48.546;-4.178;2022-11-15T04:57:33;1.58;;;0.30;;
62796;SDS011;48839;48.546;-4.178;2022-11-15T04:59:59;0.30;;;0.30;;
62796;SDS011;48839;48.546;-4.178;2022-11-15T05:02:25;1.35;;;0.30;;
62796;SDS011;48839;48.546;-4.178;2022-11-15T05:05:11;0.93;;;0.38;;
62796;SDS011;48839;48.546;-4.178;2022-11-15T05:07:37;2.58;;;0.40;;
62796;SDS011;48839;48.546;-4.178;2022-11-15T05:10:03;1.55;;;0.25;;
62796;SDS011;48839;48.546;-4.178;2022-11-15T05:12:29;0.52;;;0.52;;
62796;SDS011;48839;48.546;-4.178;2022-11-15T05:14:55;1.73;;;0.30;;
62796;SDS011;48839;48.546;-4.178;2022-11-15T05:17:21;0.98;;;0.20;;
62796;SDS011;48839;48.546;-4.178;2022-11-15T05:19:47;0.40;;;0.30;;
62796;SDS011;48839;48.546;-4.178;2022-11-15T05:22:13;0.65;;;0.30;;
62796;SDS011;48839;48.546;-4.178;2022-11-15T05:24:39;0.22;;;0.20;;
62796;SDS011;48839;48.546;-4.178;2022-11-15T05:27:05;0.20;;;0.20;;
62796;SDS011;48839;48.546;-4.178;2022-11-15T05:29:31;0.20;;;0.20;;
62796;SDS011;48839;48.546;-4.178;2022-11-15T05:31:57;0.22;;;0.20;;
62796;SDS011;48839;48.546;-4.178;2022-11-15T05:34:23;0.35;;;0.20;;
62796;SDS011;48839;48.546;-4.178;2022-11-15T05:36:50;0.40;;;0.20;;
62796;SDS011;48839;48.546;-4.178;2022-11-15T05:39:16;0.20;;;0.20;;
62796;SDS011;48839;48.546;-4.178;2022-11-15T05:41:49;0.30;;;0.30;;
62796;SDS011;48839;48.546;-4.178;2022-11-15T05:44:19;0.20;;;0.20;;
62796;SDS011;48839;48.546;-4.178;2022-11-15T05:46:47;0.20;;;0.20;;
62796;SDS011;48839;48.546;-4.178;2022-11-15T05:49:14;0.93;;;0.25;;
62796;SDS011;48839;48.546;-4.178;2022-11-15T05:51:41;0.47;;;0.30;;
62796;SDS011;48839;48.546;-4.178;2022-11-15T05:54:08;1.13;;;0.32;;
62796;SDS011;48839;48.546;-4.178;2022-11-15T05:56:34;3.50;;;1.15;;
62796;SDS011;48839;48.546;-4.178;2022-11-15T05:59:00;3.90;;;0.70;;
62796;SDS011;48839;48.546;-4.178;2022-11-15T06:01:26;4.32;;;0.70;;
62796;SDS011;48839;48.546;-4.178;2022-11-15T06:03:52;2.85;;;1.25;;
62796;SDS011;48839;48.546;-4.178;2022-11-15T06:06:18;3.03;;;1.23;;
62796;SDS011;48839;48.546;-4.178;2022-11-15T06:08:44;5.35;;;1.20;;
62796;SDS011;48839;48.546;-4.178;2022-11-15T06:11:10;9.93;;;1.40;;
62796;SDS011;48839;48.546;-4.178;2022-11-15T06:13:36;3.08;;;0.90;;
62796;SDS011;48839;48.546;-4.178;2022-11-15T06:16:02;3.08;;;0.85;;
62796;SDS011;48839;48.546;-4.178;2022-11-15T06:18:31;5.82;;;1.30;;
62796;SDS011;48839;48.546;-4.178;2022-11-15T06:21:00;7.90;;;1.10;;
62796;SDS011;48839;48.546;-4.178;2022-11-15T06:23:26;5.65;;;1.00;;
62796;SDS011;48839;48.546;-4.178;2022-11-15T06:25:52;7.10;;;1.27;;
62796;SDS011;48839;48.546;-4.178;2022-11-15T06:28:18;8.38;;;1.00;;
62796;SDS011;48839;48.546;-4.178;2022-11-15T06:30:44;7.32;;;1.17;;
62796;SDS011;48839;48.546;-4.178;2022-11-15T06:33:10;7.22;;;2.45;;
62796;SDS011;48839;48.546;-4.178;2022-11-15T06:35:36;3.90;;;1.83;;
62796;SDS011;48839;48.546;-4.178;2022-11-15T06:38:06;9.38;;;1.55;;
62796;SDS011;48839;48.546;-4.178;2022-11-15T06:40:36;5.60;;;0.95;;
62796;SDS011;48839;48.546;-4.178;2022-11-15T06:43:02;7.80;;;1.23;;
62796;SDS011;48839;48.546;-4.178;2022-11-15T06:45:29;5.88;;;1.05;;
62796;SDS011;48839;48.546;-4.178;2022-11-15T06:47:55;5.38;;;1.30;;
62796;SDS011;48839;48.546;-4.178;2022-11-15T06:50:21;8.23;;;1.73;;
62796;SDS011;48839;48.546;-4.178;2022-11-15T06:52:47;8.13;;;1.33;;
62796;SDS011;48839;48.546;-4.178;2022-11-15T06:55:13;7.40;;;1.20;;
62796;SDS011;48839;48.546;-4.178;2022-11-15T06:57:46;1.75;;;0.85;;
62796;SDS011;48839;48.546;-4.178;2022-11-15T07:00:12;5.40;;;1.25;;
62796;SDS011;48839;48.546;-4.178;2022-11-15T07:02:38;3.42;;;0.80;;
62796;SDS011;48839;48.546;-4.178;2022-11-15T07:05:04;8.73;;;1.73;;
62796;SDS011;48839;48.546;-4.178;2022-11-15T07:07:30;5.25;;;1.00;;
62796;SDS011;48839;48.546;-4.178;2022-11-15T07:09:56;9.23;;;0.98;;
62796;SDS011;48839;48.546;-4.178;2022-11-15T07:12:22;5.90;;;1.52;;
62796;SDS011;48839;48.546;-4.178;2022-11-15T07:14:48;6.05;;;0.98;;
62796;SDS011;48839;48.546;-4.178;2022-11-15T07:17:14;2.10;;;0.82;;
62796;SDS011;48839;48.546;-4.178;2022-11-15T07:19:40;10.63;;;1.80;;
62796;SDS011;48839;48.546;-4.178;2022-11-15T07:22:06;6.57;;;0.95;;
62796;SDS011;48839;48.546;-4.178;2022-11-15T07:24:32;4.38;;;0.93;;
62796;SDS011;48839;48.546;-4.178;2022-11-15T07:26:58;5.07;;;0.80;;
62796;SDS011;48839;48.546;-4.178;2022-11-15T07:29:24;4.57;;;1.10;;
62796;SDS011;48839;48.546;-4.178;2022-11-15T07:31:50;4.95;;;0.98;;
62796;SDS011;48839;48.546;-4.178;2022-11-15T07:34:16;4.28;;;0.90;;
62796;SDS011;48839;48.546;-4.178;2022-11-15T07:36:42;6.78;;;2.13;;
62796;SDS011;48839;48.546;-4.178;2022-11-15T07:39:08;6.93;;;1.23;;
62796;SDS011;48839;48.546;-4.178;2022-11-15T07:41:35;4.70;;;1.63;;
62796;SDS011;48839;48.546;-4.178;2022-11-15T07:44:01;7.28;;;1.50;;
62796;SDS011;48839;48.546;-4.178;2022-11-15T07:46:27;6.40;;;0.90;;
62796;SDS011;48839;48.546;-4.178;2022-11-15T07:48:53;3.03;;;0.90;;
62796;SDS011;48839;48.546;-4.178;2022-11-15T07:51:19;5.20;;;1.10;;
62796;SDS011;48839;48.546;-4.178;2022-11-15T07:53:45;6.20;;;1.23;;
62796;SDS011;48839;48.546;-4.178;2022-11-15T07:56:11;2.50;;;0.82;;
62796;SDS011;48839;48.546;-4.178;2022-11-15T07:58:37;5.13;;;1.20;;
62796;SDS011;48839;48.546;-4.178;2022-11-15T08:01:04;5.20;;;0.95;;
62796;SDS011;48839;48.546;-4.178;2022-11-15T08:03:30;8.10;;;1.75;;
62796;SDS011;48839;48.546;-4.178;2022-11-15T08:05:56;7.38;;;1.63;;
62796;SDS011;48839;48.546;-4.178;2022-11-15T08:08:22;4.88;;;1.20;;
62796;SDS011;48839;48.546;-4.178;2022-11-15T08:10:48;6.38;;;1.33;;
62796;SDS011;48839;48.546;-4.178;2022-11-15T08:13:15;6.00;;;1.42;;
62796;SDS011;48839;48.546;-4.178;2022-11-15T08:15:41;7.57;;;1.58;;
62796;SDS011;48839;48.546;-4.178;2022-11-15T08:18:10;10.18;;;1.42;;
62796;SDS011;48839;48.546;-4.178;2022-11-15T08:20:36;6.00;;;2.72;;
62796;SDS011;48839;48.546;-4.178;2022-11-15T08:23:03;10.32;;;4.32;;
62796;SDS011;48839;48.546;-4.178;2022-11-15T08:25:30;5.78;;;3.25;;
62796;SDS011;48839;48.546;-4.178;2022-11-15T08:27:58;10.27;;;2.97;;
62796;SDS011;48839;48.546;-4.178;2022-11-15T08:30:24;6.60;;;2.88;;
62796;SDS011;48839;48.546;-4.178;2022-11-15T08:32:51;8.32;;;2.90;;
62796;SDS011;48839;48.546;-4.178;2022-11-15T08:35:18;5.25;;;2.65;;
62796;SDS011;48839;48.546;-4.178;2022-11-15T08:37:44;5.13;;;2.08;;
62796;SDS011;48839;48.546;-4.178;2022-11-15T08:40:10;9.38;;;2.67;;
62796;SDS011;48839;48.546;-4.178;2022-11-15T08:42:36;10.00;;;2.30;;
62796;SDS011;48839;48.546;-4.178;2022-11-15T08:45:03;6.45;;;1.65;;
62796;SDS011;48839;48.546;-4.178;2022-11-15T08:47:29;11.48;;;1.92;;
62796;SDS011;48839;48.546;-4.178;2022-11-15T08:49:55;7.65;;;2.47;;
62796;SDS011;48839;48.546;-4.178;2022-11-15T08:52:21;3.75;;;1.30;;
62796;SDS011;48839;48.546;-4.178;2022-11-15T08:54:47;5.40;;;1.05;;
62796;SDS011;48839;48.546;-4.178;2022-11-15T08:57:13;11.40;;;2.30;;
62796;SDS011;48839;48.546;-4.178;2022-11-15T08:59:39;12.65;;;1.80;;
62796;SDS011;48839;48.546;-4.178;2022-11-15T09:02:05;10.80;;;2.05;;
62796;SDS011;48839;48.546;-4.178;2022-11-15T09:04:31;7.47;;;1.77;;
62796;SDS011;48839;48.546;-4.178;2022-11-15T09:06:57;7.15;;;3.22;;
62796;SDS011;48839;48.546;-4.178;2022-11-15T09:09:24;7.47;;;2.38;;
62796;SDS011;48839;48.546;-4.178;2022-11-15T09:11:49;9.73;;;3.15;;
62796;SDS011;48839;48.546;-4.178;2022-11-15T09:14:15;7.85;;;1.77;;
62796;SDS011;48839;48.546;-4.178;2022-11-15T09:16:41;12.95;;;1.77;;
62796;SDS011;48839;48.546;-4.178;2022-11-15T09:19:07;9.57;;;1.73;;
62796;SDS011;48839;48.546;-4.178;2022-11-15T09:21:33;10.35;;;1.70;;
62796;SDS011;48839;48.546;-4.178;2022-11-15T09:24:00;7.05;;;1.63;;
62796;SDS011;48839;48.546;-4.178;2022-11-15T09:26:26;8.93;;;1.75;;
62796;SDS011;48839;48.546;-4.178;2022-11-15T09:28:52;5.03;;;1.55;;
62796;SDS011;48839;48.546;-4.178;2022-11-15T09:31:18;12.10;;;1.45;;
62796;SDS011;48839;48.546;-4.178;2022-11-15T09:33:45;11.55;;;1.88;;
62796;SDS011;48839;48.546;-4.178;2022-11-15T09:36:11;10.05;;;1.70;;
62796;SDS011;48839;48.546;-4.178;2022-11-15T09:38:37;10.25;;;1.52;;
62796;SDS011;48839;48.546;-4.178;2022-11-15T09:43:39;7.97;;;1.40;;
62796;SDS011;48839;48.546;-4.178;2022-11-15T09:46:15;8.55;;;2.00;;
62796;SDS011;48839;48.546;-4.178;2022-11-15T09:51:14;9.30;;;2.00;;
62796;SDS011;48839;48.546;-4.178;2022-11-15T09:56:22;13.80;;;2.35;;
62796;SDS011;48839;48.546;-4.178;2022-11-15T10:04:06;11.40;;;2.05;;
62796;SDS011;48839;48.546;-4.178;2022-11-15T10:06:32;6.40;;;1.67;;
62796;SDS011;48839;48.546;-4.178;2022-11-15T10:09:09;14.77;;;1.73;;
62796;SDS011;48839;48.546;-4.178;2022-11-15T10:11:38;9.90;;;2.00;;
62796;SDS011;48839;48.546;-4.178;2022-11-15T10:14:16;14.27;;;2.58;;
62796;SDS011;48839;48.546;-4.178;2022-11-15T10:19:33;16.63;;;2.55;;
62796;SDS011;48839;48.546;-4.178;2022-11-15T10:24:27;13.10;;;2.50;;
62796;SDS011;48839;48.546;-4.178;2022-11-15T10:26:53;8.52;;;1.45;;
62796;SDS011;48839;48.546;-4.178;2022-11-15T10:29:20;8.98;;;1.75;;
62796;SDS011;48839;48.546;-4.178;2022-11-15T10:31:46;8.35;;;1.33;;
62796;SDS011;48839;48.546;-4.178;2022-11-15T10:34:16;9.00;;;1.98;;
62796;SDS011;48839;48.546;-4.178;2022-11-15T10:37:04;10.32;;;1.83;;
62796;SDS011;48839;48.546;-4.178;2022-11-15T10:39:30;7.32;;;2.22;;
62796;SDS011;48839;48.546;-4.178;2022-11-15T10:41:56;12.98;;;1.70;;
62796;SDS011;48839;48.546;-4.178;2022-11-15T10:44:24;8.38;;;1.92;;
62796;SDS011;48839;48.546;-4.178;2022-11-15T10:51:53;15.00;;;1.80;;
62796;SDS011;48839;48.546;-4.178;2022-11-15T10:56:48;12.63;;;2.70;;
62796;SDS011;48839;48.546;-4.178;2022-11-15T10:59:20;9.45;;;1.40;;
62796;SDS011;48839;48.546;-4.178;2022-11-15T11:01:48;9.18;;;2.28;;
62796;SDS011;48839;48.546;-4.178;2022-11-15T11:04:14;7.93;;;1.40;;
62796;SDS011;48839;48.546;-4.178;2022-11-15T11:06:47;5.00;;;1.20;;
62796;SDS011;48839;48.546;-4.178;2022-11-15T11:11:59;7.18;;;1.40;;
62796;SDS011;48839;48.546;-4.178;2022-11-15T11:14:26;9.82;;;1.65;;
62796;SDS011;48839;48.546;-4.178;2022-11-15T11:30:17;6.18;;;1.23;;
62796;SDS011;48839;48.546;-4.178;2022-11-15T11:43:40;8.38;;;1.25;;
62796;SDS011;48839;48.546;-4.178;2022-11-15T11:46:15;16.17;;;2.42;;
62796;SDS011;48839;48.546;-4.178;2022-11-15T11:48:47;5.40;;;1.40;;
62796;SDS011;48839;48.546;-4.178;2022-11-15T11:51:23;6.43;;;1.70;;
62796;SDS011;48839;48.546;-4.178;2022-11-15T11:56:29;4.95;;;1.05;;
62796;SDS011;48839;48.546;-4.178;2022-11-15T11:58:56;3.28;;;0.68;;
62796;SDS011;48839;48.546;-4.178;2022-11-15T12:03:52;6.13;;;0.95;;
62796;SDS011;48839;48.546;-4.178;2022-11-15T12:06:39;1.60;;;0.80;;
62796;SDS011;48839;48.546;-4.178;2022-11-15T12:09:18;8.70;;;0.95;;
62796;SDS011;48839;48.546;-4.178;2022-11-15T12:16:50;2.53;;;0.55;;
62796;SDS011;48839;48.546;-4.178;2022-11-15T12:19:16;1.40;;;0.47;;
62796;SDS011;48839;48.546;-4.178;2022-11-15T12:24:17;3.13;;;0.98;;
62796;SDS011;48839;48.546;-4.178;2022-11-15T12:26:49;0.40;;;0.35;;
62796;SDS011;48839;48.546;-4.178;2022-11-15T12:29:19;2.30;;;0.63;;
62796;SDS011;48839;48.546;-4.178;2022-11-15T12:31:48;3.97;;;0.70;;
62796;SDS011;48839;48.546;-4.178;2022-11-15T12:34:29;2.22;;;0.70;;
62796;SDS011;48839;48.546;-4.178;2022-11-15T12:36:55;2.33;;;0.63;;
62796;SDS011;48839;48.546;-4.178;2022-11-15T12:39:21;3.10;;;0.60;;
62796;SDS011;48839;48.546;-4.178;2022-11-15T12:47:01;4.55;;;1.13;;
62796;SDS011;48839;48.546;-4.178;2022-11-15T13:02:35;9.25;;;1.55;;
62796;SDS011;48839;48.546;-4.178;2022-11-15T13:30:40;4.32;;;0.80;;
62796;SDS011;48839;48.546;-4.178;2022-11-15T13:33:08;6.65;;;1.02;;
62796;SDS011;48839;48.546;-4.178;2022-11-15T13:35:38;6.25;;;1.13;;
62796;SDS011;48839;48.546;-4.178;2022-11-15T13:38:04;3.45;;;0.73;;
62796;SDS011;48839;48.546;-4.178;2022-11-15T13:40:34;2.83;;;0.93;;
62796;SDS011;48839;48.546;-4.178;2022-11-15T13:43:15;1.55;;;0.60;;
62796;SDS011;48839;48.546;-4.178;2022-11-15T13:45:43;3.85;;;0.90;;
62796;SDS011;48839;48.546;-4.178;2022-11-15T13:48:09;2.90;;;0.60;;
62796;SDS011;48839;48.546;-4.178;2022-11-15T13:50:36;5.40;;;1.52;;
62796;SDS011;48839;48.546;-4.178;2022-11-15T13:53:03;2.72;;;0.63;;
62796;SDS011;48839;48.546;-4.178;2022-11-15T13:55:30;6.07;;;1.13;;
62796;SDS011;48839;48.546;-4.178;2022-11-15T13:58:02;1.98;;;0.90;;
62796;SDS011;48839;48.546;-4.178;2022-11-15T14:00:35;4.03;;;0.77;;
62796;SDS011;48839;48.546;-4.178;2022-11-15T14:05:33;6.53;;;1.73;;
62796;SDS011;48839;48.546;-4.178;2022-11-15T14:10:44;3.15;;;0.80;;
62796;SDS011;48839;48.546;-4.178;2022-11-15T14:13:29;5.65;;;0.98;;
62796;SDS011;48839;48.546;-4.178;2022-11-15T14:16:12;7.03;;;1.60;;
62796;SDS011;48839;48.546;-4.178;2022-11-15T14:18:42;3.75;;;0.98;;
62796;SDS011;48839;48.546;-4.178;2022-11-15T14:21:09;3.67;;;1.05;;
62796;SDS011;48839;48.546;-4.178;2022-11-15T14:23:35;5.28;;;0.80;;
62796;SDS011;48839;48.546;-4.178;2022-11-15T14:26:01;5.75;;;0.82;;
62796;SDS011;48839;48.546;-4.178;2022-11-15T14:28:29;3.95;;;0.70;;
62796;SDS011;48839;48.546;-4.178;2022-11-15T14:30:56;6.25;;;1.45;;
62796;SDS011;48839;48.546;-4.178;2022-11-15T14:35:55;5.25;;;1.00;;
62796;SDS011;48839;48.546;-4.178;2022-11-15T14:38:23;5.20;;;1.00;;
62796;SDS011;48839;48.546;-4.178;2022-11-15T14:40:49;3.42;;;0.80;;
62796;SDS011;48839;48.546;-4.178;2022-11-15T14:43:15;5.45;;;1.30;;
62796;SDS011;48839;48.546;-4.178;2022-11-15T14:45:41;4.90;;;1.35;;
62796;SDS011;48839;48.546;-4.178;2022-11-15T14:48:07;3.10;;;0.85;;
62796;SDS011;48839;48.546;-4.178;2022-11-15T14:50:34;4.85;;;0.77;;
62796;SDS011;48839;48.546;-4.178;2022-11-15T14:53:00;6.22;;;0.80;;
62796;SDS011;48839;48.546;-4.178;2022-11-15T14:57:53;5.53;;;0.65;;
62796;SDS011;48839;48.546;-4.178;2022-11-15T15:00:19;4.18;;;1.15;;
62796;SDS011;48839;48.546;-4.178;2022-11-15T15:02:46;2.03;;;0.90;;
62796;SDS011;48839;48.546;-4.178;2022-11-15T15:05:23;4.32;;;0.90;;
62796;SDS011;48839;48.546;-4.178;2022-11-15T15:07:49;5.97;;;0.90;;
62796;SDS011;48839;48.546;-4.178;2022-11-15T15:10:16;4.75;;;1.42;;
62796;SDS011;48839;48.546;-4.178;2022-11-15T15:12:42;5.85;;;1.70;;
62796;SDS011;48839;48.546;-4.178;2022-11-15T15:15:12;8.55;;;1.13;;
62796;SDS011;48839;48.546;-4.178;2022-11-15T15:17:39;8.05;;;1.10;;
62796;SDS011;48839;48.546;-4.178;2022-11-15T15:20:05;6.88;;;1.30;;
62796;SDS011;48839;48.546;-4.178;2022-11-15T15:22:31;5.15;;;1.17;;
62796;SDS011;48839;48.546;-4.178;2022-11-15T15:24:57;3.75;;;1.00;;
62796;SDS011;48839;48.546;-4.178;2022-11-15T15:27:23;6.97;;;1.30;;
62796;SDS011;48839;48.546;-4.178;2022-11-15T15:29:49;7.63;;;1.20;;
62796;SDS011;48839;48.546;-4.178;2022-11-15T15:32:15;8.18;;;1.50;;
62796;SDS011;48839;48.546;-4.178;2022-11-15T15:34:41;8.48;;;1.65;;
62796;SDS011;48839;48.546;-4.178;2022-11-15T15:37:08;3.90;;;2.53;;
62796;SDS011;48839;48.546;-4.178;2022-11-15T15:39:34;7.97;;;1.38;;
62796;SDS011;48839;48.546;-4.178;2022-11-15T15:42:00;7.55;;;1.30;;
62796;SDS011;48839;48.546;-4.178;2022-11-15T15:44:26;5.43;;;1.20;;
62796;SDS011;48839;48.546;-4.178;2022-11-15T15:46:52;8.98;;;1.45;;
62796;SDS011;48839;48.546;-4.178;2022-11-15T15:49:18;7.97;;;1.70;;
62796;SDS011;48839;48.546;-4.178;2022-11-15T15:51:44;12.32;;;1.40;;
62796;SDS011;48839;48.546;-4.178;2022-11-15T15:54:10;6.07;;;1.38;;
62796;SDS011;48839;48.546;-4.178;2022-11-15T15:56:36;5.18;;;1.08;;
62796;SDS011;48839;48.546;-4.178;2022-11-15T15:59:02;10.10;;;1.73;;
62796;SDS011;48839;48.546;-4.178;2022-11-15T16:01:28;9.00;;;1.58;;
62796;SDS011;48839;48.546;-4.178;2022-11-15T16:03:54;10.15;;;2.10;;
62796;SDS011;48839;48.546;-4.178;2022-11-15T16:06:37;9.77;;;1.77;;
62796;SDS011;48839;48.546;-4.178;2022-11-15T16:09:04;5.28;;;1.27;;
62796;SDS011;48839;48.546;-4.178;2022-11-15T16:11:30;11.77;;;5.10;;
62796;SDS011;48839;48.546;-4.178;2022-11-15T16:13:56;34.15;;;24.05;;
62796;SDS011;48839;48.546;-4.178;2022-11-15T16:16:22;11.52;;;2.75;;
62796;SDS011;48839;48.546;-4.178;2022-11-15T16:18:48;7.18;;;4.10;;
62796;SDS011;48839;48.546;-4.178;2022-11-15T16:21:14;13.32;;;6.80;;
62796;SDS011;48839;48.546;-4.178;2022-11-15T16:23:40;15.35;;;6.90;;
62796;SDS011;48839;48.546;-4.178;2022-11-15T16:26:14;6.43;;;2.88;;
62796;SDS011;48839;48.546;-4.178;2022-11-15T16:28:42;6.70;;;1.77;;
62796;SDS011;48839;48.546;-4.178;2022-11-15T16:31:09;4.85;;;2.30;;
62796;SDS011;48839;48.546;-4.178;2022-11-15T16:33:35;6.63;;;2.40;;
62796;SDS011;48839;48.546;-4.178;2022-11-15T16:36:02;6.10;;;2.15;;
62796;SDS011;48839;48.546;-4.178;2022-11-15T16:38:29;10.60;;;2.50;;
62796;SDS011;48839;48.546;-4.178;2022-11-15T16:40:55;13.93;;;4.55;;
62796;SDS011;48839;48.546;-4.178;2022-11-15T16:43:21;9.02;;;3.42;;
62796;SDS011;48839;48.546;-4.178;2022-11-15T16:45:48;11.65;;;2.78;;
62796;SDS011;48839;48.546;-4.178;2022-11-15T16:48:24;10.40;;;1.83;;
62796;SDS011;48839;48.546;-4.178;2022-11-15T16:50:50;7.22;;;2.00;;
62796;SDS011;48839;48.546;-4.178;2022-11-15T16:53:19;7.35;;;1.48;;
62796;SDS011;48839;48.546;-4.178;2022-11-15T16:55:45;5.57;;;1.40;;
62796;SDS011;48839;48.546;-4.178;2022-11-15T16:58:11;6.07;;;1.35;;
62796;SDS011;48839;48.546;-4.178;2022-11-15T17:00:37;8.50;;;1.90;;
62796;SDS011;48839;48.546;-4.178;2022-11-15T17:03:03;6.93;;;1.63;;
62796;SDS011;48839;48.546;-4.178;2022-11-15T17:05:29;5.63;;;2.00;;